createdAt,value
2022-10-30T00:02:43.644Z,10.59
2022-10-30T00:05:28.874Z,10.53
2022-10-30T00:08:16.551Z,10.51
2022-10-30T00:11:10.298Z,10.64
2022-10-30T00:13:55.722Z,10.53
2022-10-30T00:16:41.105Z,10.43
2022-10-30T00:19:26.561Z,10.39
2022-10-30T00:22:12.053Z,10.40
2022-10-30T00:24:57.410Z,10.48
2022-10-30T00:27:42.858Z,10.35
2022-10-30T00:30:28.236Z,10.26
2022-10-30T00:33:13.729Z,10.28
2022-10-30T00:35:59.670Z,10.44
2022-10-30T00:38:45.020Z,10.66
2022-10-30T00:41:30.403Z,10.77
2022-10-30T00:44:40.677Z,10.84
2022-10-30T00:47:34.836Z,10.82
2022-10-30T00:50:20.368Z,10.80
2022-10-30T00:53:14.176Z,10.80
2022-10-30T00:56:05.684Z,10.81
2022-10-30T00:58:57.435Z,10.74
2022-10-30T01:01:46.833Z,10.66
2022-10-30T01:04:36.210Z,10.63
2022-10-30T01:07:21.819Z,10.62
2022-10-30T01:10:08.888Z,10.65
2022-10-30T01:12:57.537Z,10.63
2022-10-30T01:15:56.501Z,10.58
2022-10-30T01:18:56.208Z,10.34
2022-10-30T01:21:54.396Z,10.30
2022-10-30T01:24:39.721Z,10.32
2022-10-30T01:28:04.074Z,10.30
2022-10-30T01:31:27.511Z,10.30
2022-10-30T01:34:51.536Z,10.20
2022-10-30T01:37:54.874Z,10.06
2022-10-30T01:40:45.314Z,10.07
2022-10-30T01:43:32.457Z,10.08
2022-10-30T01:46:56.499Z,10.05
2022-10-30T01:50:04.378Z,9.99
2022-10-30T01:52:56.109Z,9.98
2022-10-30T01:55:52.147Z,10.03
2022-10-30T01:58:50.753Z,10.19
2022-10-30T02:01:38.360Z,10.20
2022-10-30T02:04:25.601Z,10.26
2022-10-30T02:07:12.781Z,10.27
2022-10-30T02:10:05.396Z,10.40
2022-10-30T02:12:51.208Z,10.51
2022-10-30T02:15:38.186Z,10.54
2022-10-30T02:18:24.861Z,10.60
2022-10-30T02:21:10.061Z,10.67
2022-10-30T02:23:57.255Z,10.74
2022-10-30T02:26:43.767Z,10.83
2022-10-30T02:29:29.255Z,10.93
2022-10-30T02:32:14.913Z,10.97
2022-10-30T02:35:00.721Z,11.01
2022-10-30T02:37:48.998Z,11.09
2022-10-30T02:40:34.568Z,11.16
2022-10-30T02:43:19.885Z,11.25
2022-10-30T02:46:05.934Z,11.32
2022-10-30T02:48:52.161Z,11.39
2022-10-30T02:51:37.529Z,11.45
2022-10-30T02:54:22.792Z,11.53
2022-10-30T02:57:09.814Z,11.60
2022-10-30T02:59:56.883Z,11.62
2022-10-30T03:02:42.346Z,11.62
2022-10-30T03:05:28.034Z,11.63
2022-10-30T03:08:13.393Z,11.62
2022-10-30T03:11:04.569Z,11.62
2022-10-30T03:13:50.338Z,11.64
2022-10-30T03:16:37.465Z,11.68
2022-10-30T03:19:23.216Z,11.74
2022-10-30T03:22:10.301Z,11.73
2022-10-30T03:24:57.119Z,11.74
2022-10-30T03:27:42.824Z,11.73
2022-10-30T03:30:28.134Z,11.70
2022-10-30T03:33:13.939Z,11.67
2022-10-30T03:35:59.928Z,11.70
2022-10-30T03:38:45.199Z,11.73
2022-10-30T03:41:35.120Z,11.78
2022-10-30T03:44:21.116Z,11.81
2022-10-30T03:47:07.389Z,11.82
2022-10-30T03:50:03.547Z,11.79
2022-10-30T03:52:49.167Z,11.75
2022-10-30T03:55:34.441Z,11.72
2022-10-30T03:58:20.053Z,11.71
2022-10-30T04:01:07.996Z,11.69
2022-10-30T04:03:57.545Z,11.70
2022-10-30T04:06:44.385Z,11.72
2022-10-30T04:09:29.707Z,11.76
2022-10-30T04:12:15.074Z,11.82
2022-10-30T04:15:00.471Z,11.88
2022-10-30T04:17:51.466Z,11.93
2022-10-30T04:20:37.428Z,11.92
2022-10-30T04:23:23.304Z,11.97
2022-10-30T04:26:09.082Z,12.01
2022-10-30T04:28:57.435Z,12.06
2022-10-30T04:31:43.525Z,12.12
2022-10-30T04:34:28.804Z,12.14
2022-10-30T04:37:14.201Z,12.13
2022-10-30T04:39:59.644Z,12.14
2022-10-30T04:42:47.719Z,12.11
2022-10-30T04:45:34.484Z,12.07
2022-10-30T04:48:21.858Z,12.08
2022-10-30T04:51:07.301Z,12.07
2022-10-30T04:53:54.252Z,12.04
2022-10-30T04:56:40.033Z,12.02
2022-10-30T04:59:26.275Z,12.02
2022-10-30T05:02:13.432Z,12.01
2022-10-30T05:04:59.227Z,11.95
2022-10-30T05:07:44.591Z,11.87
2022-10-30T05:10:30.741Z,11.79
2022-10-30T05:13:16.163Z,11.73
2022-10-30T05:16:01.817Z,11.62
2022-10-30T05:18:47.032Z,11.52
2022-10-30T05:21:32.474Z,11.41
2022-10-30T05:24:18.293Z,11.30
2022-10-30T05:27:03.952Z,11.23
2022-10-30T05:29:51.067Z,11.16
2022-10-30T05:32:36.497Z,11.10
2022-10-30T05:35:22.314Z,11.04
2022-10-30T05:38:07.932Z,11.01
2022-10-30T05:40:53.476Z,11.00
2022-10-30T05:43:38.892Z,10.98
2022-10-30T05:46:24.410Z,10.91
2022-10-30T05:49:11.322Z,10.91
2022-10-30T05:51:56.738Z,10.89
2022-10-30T05:54:41.974Z,10.89
2022-10-30T05:57:33.305Z,10.87
2022-10-30T06:00:19.723Z,10.80
2022-10-30T06:03:08.223Z,10.77
2022-10-30T06:05:55.159Z,10.71
2022-10-30T06:08:41.482Z,10.69
2022-10-30T06:11:50.791Z,10.67
2022-10-30T06:14:40.308Z,10.67
2022-10-30T06:17:26.281Z,10.60
2022-10-30T06:20:19.090Z,10.56
2022-10-30T06:23:23.682Z,10.57
2022-10-30T06:26:15.403Z,10.58
2022-10-30T06:29:03.189Z,10.59
2022-10-30T06:31:49.050Z,10.59
2022-10-30T06:34:35.402Z,10.53
2022-10-30T06:37:21.269Z,10.43
2022-10-30T06:40:09.356Z,10.35
2022-10-30T06:43:13.722Z,10.19
2022-10-30T06:46:02.699Z,10.11
2022-10-30T06:48:49.864Z,10.00
2022-10-30T06:51:36.775Z,9.95
2022-10-30T06:54:22.572Z,9.86
2022-10-30T06:57:28.124Z,9.78
2022-10-30T07:00:33.698Z,9.69
2022-10-30T07:03:37.851Z,9.64
2022-10-30T07:06:23.255Z,9.53
2022-10-30T07:09:08.540Z,9.46
2022-10-30T07:11:56.705Z,9.39
2022-10-30T07:14:57.417Z,9.32
2022-10-30T07:18:03.543Z,9.23
2022-10-30T07:20:58.654Z,9.14
2022-10-30T07:23:44.639Z,9.12
2022-10-30T07:26:56.710Z,9.07
2022-10-30T07:29:53.401Z,9.10
2022-10-30T07:33:03.792Z,9.12
2022-10-30T07:36:04.808Z,9.17
2022-10-30T07:39:10.320Z,9.21
2022-10-30T07:42:11.228Z,9.23
2022-10-30T07:45:15.730Z,9.23
2022-10-30T07:48:32.767Z,9.27
2022-10-30T07:51:23.726Z,9.30
2022-10-30T07:54:09.455Z,9.36
2022-10-30T07:56:54.933Z,9.48
2022-10-30T08:00:01.088Z,9.53
2022-10-30T08:02:59.360Z,9.65
2022-10-30T08:05:55.940Z,9.78
2022-10-30T08:08:47.138Z,9.87
2022-10-30T08:11:40.917Z,9.92
2022-10-30T08:14:26.610Z,9.99
2022-10-30T08:17:13.815Z,10.11
2022-10-30T08:20:00.790Z,10.17
2022-10-30T08:22:54.205Z,10.19
2022-10-30T08:25:42.555Z,10.22
2022-10-30T08:28:31.676Z,10.24
2022-10-30T08:31:19.867Z,10.26
2022-10-30T08:34:20.699Z,10.26
2022-10-30T08:37:10.696Z,10.21
2022-10-30T08:39:56.339Z,10.22
2022-10-30T08:43:04.453Z,10.28
2022-10-30T08:45:51.416Z,10.29
2022-10-30T08:48:39.747Z,10.29
2022-10-30T08:51:25.543Z,10.32
2022-10-30T08:54:10.973Z,10.35
2022-10-30T08:56:56.774Z,10.36
2022-10-30T08:59:43.392Z,10.41
2022-10-30T09:02:42.496Z,10.52
2022-10-30T09:05:48.246Z,10.60
2022-10-30T09:08:36.494Z,10.70
2022-10-30T09:11:40.948Z,10.79
2022-10-30T09:14:26.726Z,10.84
2022-10-30T09:17:12.541Z,10.92
2022-10-30T09:20:02.747Z,11.02
2022-10-30T09:22:54.520Z,11.17
2022-10-30T09:25:40.441Z,11.29
2022-10-30T09:28:50.348Z,11.40
2022-10-30T09:31:54.620Z,11.45
2022-10-30T09:34:43.082Z,11.47
2022-10-30T09:37:40.307Z,11.47
2022-10-30T09:40:49.055Z,11.47
2022-10-30T09:44:00.714Z,11.48
2022-10-30T09:46:58.783Z,11.49
2022-10-30T09:50:01.215Z,11.54
2022-10-30T09:53:01.672Z,11.55
2022-10-30T09:56:15.147Z,11.63
2022-10-30T09:59:41.961Z,11.71
2022-10-30T10:02:53.938Z,11.88
2022-10-30T10:05:44.504Z,12.04
2022-10-30T10:09:01.774Z,12.19
2022-10-30T10:12:13.933Z,12.29
2022-10-30T10:15:01.675Z,12.39
2022-10-30T10:17:47.844Z,12.49
2022-10-30T10:20:42.504Z,12.59
2022-10-30T10:23:36.191Z,12.66
2022-10-30T10:26:53.965Z,12.69
2022-10-30T10:30:11.805Z,12.72
2022-10-30T10:36:46.242Z,12.66
2022-10-30T10:39:56.206Z,12.65
2022-10-30T10:43:02.035Z,12.65
2022-10-30T10:45:57.087Z,12.68
2022-10-30T10:49:01.032Z,12.73
2022-10-30T10:51:54.255Z,12.81
2022-10-30T10:54:45.331Z,12.86
2022-10-30T10:57:37.825Z,12.89
2022-10-30T11:00:24.565Z,12.96
2022-10-30T11:03:18.019Z,12.98
2022-10-30T11:06:27.414Z,12.97
2022-10-30T11:09:21.519Z,12.98
2022-10-30T11:12:07.223Z,13.02
2022-10-30T11:14:52.922Z,13.26
2022-10-30T11:18:03.404Z,13.51
2022-10-30T11:21:03.445Z,13.60
2022-10-30T11:23:49.772Z,13.64
2022-10-30T11:26:35.396Z,13.67
2022-10-30T11:29:27.387Z,13.72
2022-10-30T11:32:20.561Z,13.73
2022-10-30T11:35:09.312Z,13.66
2022-10-30T11:38:18.917Z,13.58
2022-10-30T11:41:04.320Z,13.51
2022-10-30T11:43:50.234Z,13.49
2022-10-30T11:46:36.991Z,13.43
2022-10-30T11:49:51.533Z,13.25
2022-10-30T11:52:41.615Z,13.17
2022-10-30T11:55:40.069Z,13.14
2022-10-30T11:58:33.114Z,13.05
2022-10-30T12:01:30.107Z,12.96
2022-10-30T12:04:27.490Z,12.97
2022-10-30T12:07:25.467Z,12.95
2022-10-30T12:10:28.532Z,12.98
2022-10-30T12:13:19.597Z,13.07
2022-10-30T12:16:14.513Z,13.27
2022-10-30T12:19:06.956Z,13.47
2022-10-30T12:21:54.743Z,13.64
2022-10-30T12:24:43.696Z,13.75
2022-10-30T12:27:32.152Z,13.80
2022-10-30T12:30:21.139Z,13.81
2022-10-30T12:33:16.376Z,13.78
2022-10-30T12:36:10.221Z,13.67
2022-10-30T12:39:05.415Z,13.55
2022-10-30T12:41:56.705Z,13.36
2022-10-30T12:45:05.499Z,13.32
2022-10-30T12:47:59.836Z,13.36
2022-10-30T12:50:52.637Z,13.36
2022-10-30T12:53:52.963Z,13.39
2022-10-30T12:56:43.226Z,13.41
2022-10-30T12:59:36.083Z,13.50
2022-10-30T13:02:53.841Z,13.50
2022-10-30T13:05:51.644Z,13.46
2022-10-30T13:08:44.961Z,13.43
2022-10-30T13:11:47.922Z,13.37
2022-10-30T13:14:42.692Z,13.55
2022-10-30T13:17:29.114Z,13.86
2022-10-30T13:20:15.658Z,14.13
2022-10-30T13:23:25.641Z,14.38
2022-10-30T13:26:52.050Z,14.58
2022-10-30T13:29:53.446Z,14.53
2022-10-30T13:32:50.050Z,14.49
2022-10-30T13:36:02.570Z,14.36
2022-10-30T13:38:56.984Z,14.26
2022-10-30T13:42:03.841Z,14.36
2022-10-30T13:45:26.435Z,14.36
2022-10-30T13:48:18.981Z,14.40
2022-10-30T13:51:07.389Z,14.31
2022-10-30T13:54:04.647Z,14.36
2022-10-30T13:56:51.657Z,14.40
2022-10-30T13:59:40.312Z,14.42
2022-10-30T14:02:54.021Z,14.34
2022-10-30T14:05:56.683Z,14.32
2022-10-30T14:09:00.242Z,14.40
2022-10-30T14:11:45.947Z,14.40
2022-10-30T14:14:32.260Z,14.30
2022-10-30T14:17:18.324Z,14.13
2022-10-30T14:20:12.572Z,14.22
2022-10-30T14:23:12.599Z,14.26
2022-10-30T14:26:07.057Z,14.21
2022-10-30T14:28:55.446Z,14.18
2022-10-30T14:31:40.859Z,14.36
2022-10-30T14:34:53.271Z,14.73
2022-10-30T14:37:38.531Z,14.92
2022-10-30T14:40:37.331Z,14.79
2022-10-30T14:43:37.268Z,14.61
2022-10-30T14:46:37.523Z,14.60
2022-10-30T14:49:48.619Z,14.48
2022-10-30T14:52:49.158Z,14.40
2022-10-30T14:55:53.253Z,14.30
2022-10-30T14:58:39.173Z,14.14
2022-10-30T15:01:32.229Z,13.94
2022-10-30T15:04:28.053Z,13.77
2022-10-30T15:07:38.426Z,13.65
2022-10-30T15:10:34.291Z,13.55
2022-10-30T15:13:22.658Z,13.43
2022-10-30T15:16:09.393Z,13.32
2022-10-30T15:19:07.224Z,13.29
2022-10-30T15:21:55.210Z,13.35
2022-10-30T15:24:40.790Z,13.51
2022-10-30T15:27:27.044Z,13.55
2022-10-30T15:30:17.813Z,13.54
2022-10-30T15:33:03.724Z,13.45
2022-10-30T15:35:49.673Z,13.29
2022-10-30T15:38:35.036Z,13.23
2022-10-30T15:41:21.087Z,13.14
2022-10-30T15:44:06.835Z,13.06
2022-10-30T15:46:54.766Z,12.96
2022-10-30T15:49:43.224Z,12.91
2022-10-30T15:52:40.412Z,12.84
2022-10-30T15:55:29.406Z,12.77
2022-10-30T15:58:20.939Z,12.71
2022-10-30T16:01:06.234Z,12.64
2022-10-30T16:03:53.665Z,12.56
2022-10-30T16:06:39.355Z,12.50
2022-10-30T16:09:26.591Z,12.41
2022-10-30T16:12:12.944Z,12.32
2022-10-30T16:15:06.122Z,12.30
2022-10-30T16:18:08.677Z,12.26
2022-10-30T16:20:56.787Z,12.13
2022-10-30T16:23:48.751Z,12.08
2022-10-30T16:26:37.201Z,12.04
2022-10-30T16:29:27.353Z,11.99
2022-10-30T16:32:16.439Z,11.93
2022-10-30T16:35:04.626Z,11.85
2022-10-30T16:37:50.906Z,11.78
2022-10-30T16:40:36.857Z,11.72
2022-10-30T16:43:31.023Z,11.68
2022-10-30T16:46:16.394Z,11.71
2022-10-30T16:49:06.773Z,11.66
2022-10-30T16:51:58.447Z,11.54
2022-10-30T16:54:53.599Z,11.52
2022-10-30T16:57:44.142Z,11.45
2022-10-30T17:00:34.018Z,11.41
2022-10-30T17:03:25.213Z,11.32
2022-10-30T17:06:36.538Z,11.26
2022-10-30T17:09:26.967Z,11.22
2022-10-30T17:12:25.814Z,11.23
2022-10-30T17:15:16.328Z,11.20
2022-10-30T17:18:16.302Z,11.16
2022-10-30T17:21:10.124Z,11.10
2022-10-30T17:24:00.601Z,11.02
2022-10-30T17:26:55.799Z,10.97
2022-10-30T17:29:41.009Z,10.94
2022-10-30T17:32:29.448Z,10.86
2022-10-30T17:35:17.156Z,10.88
2022-10-30T17:38:03.074Z,10.90
2022-10-30T17:40:48.982Z,10.88
2022-10-30T17:43:47.991Z,10.89
2022-10-30T17:46:34.169Z,10.93
2022-10-30T17:49:31.986Z,10.90
2022-10-30T17:52:21.607Z,10.91
2022-10-30T17:55:30.666Z,10.85
2022-10-30T17:58:16.008Z,10.85
2022-10-30T18:01:01.755Z,10.88
2022-10-30T18:03:51.792Z,10.91
2022-10-30T18:06:37.347Z,10.86
2022-10-30T18:09:22.863Z,10.84
2022-10-30T18:12:13.358Z,10.78
2022-10-30T18:14:59.011Z,10.84
2022-10-30T18:17:44.736Z,10.82
2022-10-30T18:20:30.844Z,10.81
2022-10-30T18:26:28.028Z,10.69
2022-10-30T18:29:13.686Z,10.76
2022-10-30T18:31:59.476Z,10.77
2022-10-30T18:34:44.919Z,10.76
2022-10-30T18:37:30.492Z,10.65
2022-10-30T18:40:18.940Z,10.56
2022-10-30T18:43:05.906Z,10.55
2022-10-30T18:45:51.498Z,10.49
2022-10-30T18:48:37.413Z,10.45
2022-10-30T18:51:25.775Z,10.42
2022-10-30T18:54:15.394Z,10.33
2022-10-30T18:57:00.696Z,10.27
2022-10-30T18:59:45.924Z,10.23
2022-10-30T19:02:31.436Z,10.19
2022-10-30T19:05:28.895Z,10.18
2022-10-30T19:08:15.038Z,10.17
2022-10-30T19:11:00.432Z,10.24
2022-10-30T19:13:47.111Z,10.29
2022-10-30T19:16:33.532Z,10.34
2022-10-30T19:19:18.897Z,10.35
2022-10-30T19:22:04.326Z,10.31
2022-10-30T19:24:49.710Z,10.34
2022-10-30T19:27:35.172Z,10.25
2022-10-30T19:30:21.715Z,10.17
2022-10-30T19:33:09.106Z,10.25
2022-10-30T19:36:04.886Z,10.23
2022-10-30T19:38:50.297Z,10.18
2022-10-30T19:41:36.460Z,10.17
2022-10-30T19:44:22.038Z,10.25
2022-10-30T19:47:10.797Z,10.28
2022-10-30T19:49:56.398Z,10.18
2022-10-30T19:52:41.717Z,10.15
2022-10-30T19:55:32.883Z,10.14
2022-10-30T19:58:22.155Z,10.08
2022-10-30T20:01:13.642Z,10.19
2022-10-30T20:03:59.524Z,10.22
2022-10-30T20:06:44.814Z,10.30
2022-10-30T20:09:31.123Z,10.28
2022-10-30T20:12:16.557Z,10.22
2022-10-30T20:15:01.813Z,10.31
2022-10-30T20:17:47.701Z,10.26
2022-10-30T20:20:34.855Z,10.23
2022-10-30T20:23:21.651Z,10.15
2022-10-30T20:26:24.338Z,10.20
2022-10-30T20:29:10.315Z,10.13
2022-10-30T20:31:55.634Z,10.13
2022-10-30T20:34:41.275Z,10.08
2022-10-30T20:37:26.654Z,10.06
2022-10-30T20:40:17.205Z,10.13
2022-10-30T20:43:03.397Z,10.06
2022-10-30T20:45:48.790Z,10.01
2022-10-30T20:48:34.191Z,10.02
2022-10-30T20:51:19.905Z,10.04
2022-10-30T20:54:05.411Z,9.99
2022-10-30T20:56:50.948Z,9.98
2022-10-30T20:59:36.370Z,9.92
2022-10-30T21:02:22.214Z,9.91
2022-10-30T21:05:11.804Z,9.86
2022-10-30T21:08:09.172Z,9.84
2022-10-30T21:11:01.706Z,9.73
2022-10-30T21:13:47.492Z,9.74
2022-10-30T21:16:33.299Z,9.70
2022-10-30T21:19:18.760Z,9.58
2022-10-30T21:22:04.685Z,9.51
2022-10-30T21:24:50.649Z,9.42
2022-10-30T21:27:36.314Z,9.22
2022-10-30T21:30:21.650Z,9.12
2022-10-30T21:33:07.038Z,9.00
2022-10-30T21:35:52.375Z,8.98
2022-10-30T21:38:37.707Z,8.81
2022-10-30T21:41:25.067Z,8.63
2022-10-30T21:44:10.349Z,8.46
2022-10-30T21:46:55.661Z,8.34
2022-10-30T21:49:41.414Z,8.29
2022-10-30T21:52:26.707Z,8.14
2022-10-30T21:55:12.164Z,8.03
2022-10-30T21:57:57.903Z,8.11
2022-10-30T22:00:43.504Z,8.10
2022-10-30T22:03:29.558Z,8.17
2022-10-30T22:06:17.220Z,8.17
2022-10-30T22:09:02.893Z,8.27
2022-10-30T22:11:48.293Z,8.24
2022-10-30T22:14:33.749Z,8.30
2022-10-30T22:17:19.175Z,8.42
2022-10-30T22:20:04.930Z,8.47
2022-10-30T22:22:50.252Z,8.46
2022-10-30T22:25:35.791Z,8.63
2022-10-30T22:28:21.414Z,8.63
2022-10-30T22:31:09.973Z,8.58
2022-10-30T22:33:56.151Z,8.52
2022-10-30T22:36:41.551Z,8.54
2022-10-30T22:39:27.011Z,8.60
2022-10-30T22:42:12.289Z,8.79
2022-10-30T22:44:57.546Z,8.92
2022-10-30T22:47:43.016Z,9.12
2022-10-30T22:50:28.386Z,9.38
2022-10-30T22:53:13.704Z,9.47
2022-10-30T22:55:59.928Z,9.57
2022-10-30T22:58:47.284Z,9.66
2022-10-30T23:01:34.786Z,9.74
2022-10-30T23:04:20.234Z,9.82
2022-10-30T23:07:05.696Z,9.79
2022-10-30T23:09:51.090Z,9.70
2022-10-30T23:12:36.329Z,9.63
2022-10-30T23:15:22.369Z,9.49
2022-10-30T23:18:07.722Z,9.31
2022-10-30T23:20:58.664Z,9.36
2022-10-30T23:23:45.014Z,9.28
2022-10-30T23:26:33.195Z,9.29
2022-10-30T23:29:19.516Z,9.34
2022-10-30T23:32:06.693Z,9.32
2022-10-30T23:34:52.269Z,9.25
2022-10-30T23:37:37.631Z,9.20
2022-10-30T23:40:23.095Z,9.18
2022-10-30T23:43:08.561Z,9.01
2022-10-30T23:45:54.179Z,8.93
2022-10-30T23:48:39.771Z,8.88
2022-10-30T23:51:25.630Z,8.71
2022-10-30T23:54:11.129Z,8.83
2022-10-30T23:56:56.689Z,8.88
2022-10-30T23:59:42.078Z,8.99
